createdAt,value
2022-09-27T00:00:31.559Z,975.46
2022-09-27T00:01:31.662Z,975.46
2022-09-27T00:02:31.635Z,975.47
2022-09-27T00:03:31.536Z,975.43
2022-09-27T00:04:31.530Z,975.46
2022-09-27T00:05:31.500Z,975.42
2022-09-27T00:06:31.497Z,975.48
2022-09-27T00:07:31.482Z,975.43
2022-09-27T00:08:31.464Z,975.47
2022-09-27T00:09:31.479Z,975.44
2022-09-27T00:10:31.463Z,975.44
2022-09-27T00:11:31.435Z,975.43
2022-09-27T00:12:31.419Z,975.37
2022-09-27T00:13:31.432Z,975.32
2022-09-27T00:14:31.401Z,975.39
2022-09-27T00:15:31.433Z,975.36
2022-09-27T00:16:31.375Z,975.33
2022-09-27T00:17:31.366Z,975.36
2022-09-27T00:18:31.398Z,975.36
2022-09-27T00:19:31.344Z,975.37
2022-09-27T00:20:31.330Z,975.35
2022-09-27T00:21:31.320Z,975.38
2022-09-27T00:22:31.316Z,975.35
2022-09-27T00:23:31.318Z,975.36
2022-09-27T00:24:31.286Z,975.33
2022-09-27T00:25:31.295Z,975.36
2022-09-27T00:26:31.265Z,975.34
2022-09-27T00:27:31.254Z,975.36
2022-09-27T00:28:31.242Z,975.38
2022-09-27T00:29:31.233Z,975.38
2022-09-27T00:30:31.296Z,975.35
2022-09-27T00:31:31.297Z,975.33
2022-09-27T00:32:31.196Z,975.30
2022-09-27T00:33:31.187Z,975.33
2022-09-27T00:34:31.194Z,975.32
2022-09-27T00:35:31.165Z,975.33
2022-09-27T00:36:31.170Z,975.29
2022-09-27T00:37:31.143Z,975.32
2022-09-27T00:38:31.134Z,975.28
2022-09-27T00:39:31.312Z,975.26
2022-09-27T00:40:31.183Z,975.24
2022-09-27T00:41:31.096Z,975.25
2022-09-27T00:42:31.085Z,975.25
2022-09-27T00:43:31.122Z,975.22
2022-09-27T00:44:31.063Z,975.20
2022-09-27T00:45:31.073Z,975.18
2022-09-27T00:46:31.109Z,975.20
2022-09-27T00:47:31.341Z,975.15
2022-09-27T00:48:31.025Z,975.16
2022-09-27T00:49:31.011Z,975.18
2022-09-27T00:50:31.033Z,975.12
2022-09-27T00:51:30.983Z,975.16
2022-09-27T00:52:30.971Z,975.17
2022-09-27T00:53:30.963Z,975.16
2022-09-27T00:54:30.952Z,975.12
2022-09-27T00:55:30.962Z,975.11
2022-09-27T00:56:30.929Z,975.12
2022-09-27T00:57:30.936Z,975.08
2022-09-27T00:58:30.921Z,975.08
2022-09-27T00:59:30.901Z,975.08
2022-09-27T01:00:30.911Z,975.07
2022-09-27T01:01:30.959Z,975.07
2022-09-27T01:02:30.913Z,975.08
2022-09-27T01:03:30.848Z,975.10
2022-09-27T01:04:30.841Z,975.09
2022-09-27T01:05:30.855Z,975.05
2022-09-27T01:06:30.878Z,975.05
2022-09-27T01:07:30.808Z,975.03
2022-09-27T01:08:30.794Z,975.03
2022-09-27T01:09:30.806Z,975.07
2022-09-27T01:10:30.771Z,975.06
2022-09-27T01:11:30.785Z,975.07
2022-09-27T01:12:30.747Z,975.09
2022-09-27T01:13:30.758Z,975.11
2022-09-27T01:14:30.820Z,975.06
2022-09-27T01:15:30.787Z,975.11
2022-09-27T01:16:30.704Z,975.06
2022-09-27T01:17:30.695Z,975.09
2022-09-27T01:18:30.707Z,975.05
2022-09-27T01:19:30.678Z,975.04
2022-09-27T01:20:30.681Z,975.04
2022-09-27T01:21:30.669Z,974.99
2022-09-27T01:22:30.688Z,974.98
2022-09-27T01:23:30.649Z,974.94
2022-09-27T01:24:30.634Z,974.97
2022-09-27T01:25:30.603Z,974.93
2022-09-27T01:26:30.627Z,974.94
2022-09-27T01:27:30.580Z,974.95
2022-09-27T01:28:30.569Z,974.90
2022-09-27T01:29:30.561Z,974.95
2022-09-27T01:30:30.610Z,974.98
2022-09-27T01:31:30.667Z,974.96
2022-09-27T01:32:30.562Z,974.98
2022-09-27T01:33:30.520Z,974.92
2022-09-27T01:34:30.558Z,974.95
2022-09-27T01:35:30.491Z,974.94
2022-09-27T01:36:30.622Z,974.91
2022-09-27T01:37:30.485Z,974.92
2022-09-27T01:38:30.475Z,974.93
2022-09-27T01:39:30.445Z,974.92
2022-09-27T01:40:30.516Z,974.94
2022-09-27T01:41:30.425Z,974.96
2022-09-27T01:42:30.432Z,974.92
2022-09-27T01:43:30.402Z,974.96
2022-09-27T01:44:30.394Z,974.94
2022-09-27T01:45:30.385Z,974.94
2022-09-27T01:46:30.471Z,974.95
2022-09-27T01:47:30.361Z,974.93
2022-09-27T01:48:30.347Z,974.92
2022-09-27T01:49:30.335Z,974.84
2022-09-27T01:50:30.326Z,974.82
2022-09-27T01:51:30.339Z,974.84
2022-09-27T01:52:30.325Z,974.80
2022-09-27T01:53:30.291Z,974.81
2022-09-27T01:54:30.329Z,974.77
2022-09-27T01:55:30.268Z,974.75
2022-09-27T01:56:30.258Z,974.71
2022-09-27T01:57:30.284Z,974.75
2022-09-27T01:58:30.255Z,974.78
2022-09-27T01:59:30.226Z,974.77
2022-09-27T02:00:30.218Z,974.78
2022-09-27T02:01:30.343Z,974.77
2022-09-27T02:02:30.239Z,974.82
2022-09-27T02:03:30.202Z,974.80
2022-09-27T02:04:30.171Z,974.76
2022-09-27T02:05:30.159Z,974.77
2022-09-27T02:06:30.145Z,974.79
2022-09-27T02:07:30.152Z,974.78
2022-09-27T02:08:30.124Z,974.75
2022-09-27T02:09:30.136Z,974.75
2022-09-27T02:10:30.123Z,974.75
2022-09-27T02:11:30.086Z,974.72
2022-09-27T02:12:30.109Z,974.68
2022-09-27T02:13:30.068Z,974.69
2022-09-27T02:14:30.080Z,974.70
2022-09-27T02:15:30.171Z,974.69
2022-09-27T02:16:30.033Z,974.66
2022-09-27T02:17:30.030Z,974.64
2022-09-27T02:18:30.013Z,974.67
2022-09-27T02:19:30.019Z,974.63
2022-09-27T02:20:29.996Z,974.60
2022-09-27T02:21:29.983Z,974.59
2022-09-27T02:22:29.964Z,974.59
2022-09-27T02:23:29.974Z,974.58
2022-09-27T02:24:29.946Z,974.55
2022-09-27T02:25:29.932Z,974.55
2022-09-27T02:26:29.972Z,974.57
2022-09-27T02:27:29.907Z,974.54
2022-09-27T02:28:29.900Z,974.57
2022-09-27T02:29:29.886Z,974.57
2022-09-27T02:30:30.069Z,974.57
2022-09-27T02:31:29.971Z,974.55
2022-09-27T02:32:29.854Z,974.57
2022-09-27T02:33:29.861Z,974.60
2022-09-27T02:34:29.830Z,974.57
2022-09-27T02:35:29.819Z,974.51
2022-09-27T02:36:29.834Z,974.52
2022-09-27T02:37:29.797Z,974.54
2022-09-27T02:38:29.789Z,974.55
2022-09-27T02:39:29.774Z,974.58
2022-09-27T02:40:29.845Z,974.55
2022-09-27T02:41:29.777Z,974.54
2022-09-27T02:42:29.760Z,974.55
2022-09-27T02:43:29.728Z,974.56
2022-09-27T02:44:29.720Z,974.55
2022-09-27T02:45:29.707Z,974.49
2022-09-27T02:46:29.801Z,974.53
2022-09-27T02:47:29.687Z,974.51
2022-09-27T02:48:29.673Z,974.51
2022-09-27T02:49:29.688Z,974.52
2022-09-27T02:50:29.659Z,974.50
2022-09-27T02:51:29.663Z,974.53
2022-09-27T02:52:29.630Z,974.54
2022-09-27T02:53:29.618Z,974.50
2022-09-27T02:54:29.627Z,974.53
2022-09-27T02:55:29.599Z,974.50
2022-09-27T02:56:29.605Z,974.52
2022-09-27T02:57:29.570Z,974.50
2022-09-27T02:58:29.583Z,974.52
2022-09-27T02:59:29.580Z,974.53
2022-09-27T03:00:29.543Z,974.50
2022-09-27T03:01:29.604Z,974.51
2022-09-27T03:02:29.648Z,974.54
2022-09-27T03:03:29.506Z,974.53
2022-09-27T03:04:29.520Z,974.50
2022-09-27T03:05:29.506Z,974.49
2022-09-27T03:06:29.473Z,974.52
2022-09-27T03:07:29.464Z,974.48
2022-09-27T03:08:29.452Z,974.49
2022-09-27T03:09:29.462Z,974.50
2022-09-27T03:10:29.455Z,974.48
2022-09-27T03:11:29.451Z,974.50
2022-09-27T03:12:29.425Z,974.49
2022-09-27T03:13:29.409Z,974.47
2022-09-27T03:14:29.399Z,974.46
2022-09-27T03:15:29.374Z,974.50
2022-09-27T03:16:29.457Z,974.48
2022-09-27T03:17:29.347Z,974.51
2022-09-27T03:18:29.367Z,974.52
2022-09-27T03:19:29.324Z,974.48
2022-09-27T03:20:29.354Z,974.52
2022-09-27T03:21:29.336Z,974.54
2022-09-27T03:22:29.292Z,974.51
2022-09-27T03:23:29.302Z,974.44
2022-09-27T03:24:29.272Z,974.49
2022-09-27T03:25:29.259Z,974.48
2022-09-27T03:26:29.276Z,974.53
2022-09-27T03:27:29.236Z,974.53
2022-09-27T03:28:29.231Z,974.56
2022-09-27T03:29:29.215Z,974.50
2022-09-27T03:30:29.221Z,974.51
2022-09-27T03:31:29.265Z,974.50
2022-09-27T03:32:29.202Z,974.55
2022-09-27T03:33:29.170Z,974.57
2022-09-27T03:34:29.158Z,974.51
2022-09-27T03:35:29.172Z,974.56
2022-09-27T03:36:29.135Z,974.52
2022-09-27T03:37:29.130Z,974.57
2022-09-27T03:38:29.116Z,974.54
2022-09-27T03:39:29.114Z,974.55
2022-09-27T03:40:29.155Z,974.57
2022-09-27T03:41:29.105Z,974.59
2022-09-27T03:42:29.091Z,974.50
2022-09-27T03:43:29.077Z,974.55
2022-09-27T03:44:29.054Z,974.53
2022-09-27T03:45:29.033Z,974.52
2022-09-27T03:46:29.172Z,974.55
2022-09-27T03:47:29.016Z,974.48
2022-09-27T03:48:29.034Z,974.49
2022-09-27T03:49:28.989Z,974.48
2022-09-27T03:50:28.981Z,974.48
2022-09-27T03:51:28.973Z,974.44
2022-09-27T03:52:28.958Z,974.46
2022-09-27T03:53:28.971Z,974.45
2022-09-27T03:54:28.935Z,974.41
2022-09-27T03:55:28.924Z,974.40
2022-09-27T03:56:28.912Z,974.42
2022-09-27T03:57:28.903Z,974.38
2022-09-27T03:58:28.914Z,974.39
2022-09-27T03:59:28.881Z,974.41
2022-09-27T04:00:28.869Z,974.39
2022-09-27T04:01:28.999Z,974.37
2022-09-27T04:02:28.935Z,974.32
2022-09-27T04:03:28.855Z,974.33
2022-09-27T04:04:28.825Z,974.30
2022-09-27T04:05:28.850Z,974.30
2022-09-27T04:06:28.825Z,974.29
2022-09-27T04:07:28.790Z,974.31
2022-09-27T04:08:28.778Z,974.29
2022-09-27T04:09:28.767Z,974.29
2022-09-27T04:10:28.856Z,974.31
2022-09-27T04:11:28.745Z,974.29
2022-09-27T04:12:28.731Z,974.32
2022-09-27T04:13:28.723Z,974.34
2022-09-27T04:14:28.760Z,974.32
2022-09-27T04:15:28.721Z,974.32
2022-09-27T04:16:28.714Z,974.32
2022-09-27T04:17:28.677Z,974.30
2022-09-27T04:18:28.683Z,974.29
2022-09-27T04:19:28.654Z,974.29
2022-09-27T04:20:28.664Z,974.27
2022-09-27T04:21:28.634Z,974.26
2022-09-27T04:22:28.625Z,974.26
2022-09-27T04:23:30.219Z,974.28
2022-09-27T04:24:28.597Z,974.25
2022-09-27T04:25:28.611Z,974.24
2022-09-27T04:26:28.575Z,974.29
2022-09-27T04:27:28.565Z,974.30
2022-09-27T04:28:28.552Z,974.29
2022-09-27T04:29:28.566Z,974.34
2022-09-27T04:30:28.640Z,974.31
2022-09-27T04:31:28.579Z,974.31
2022-09-27T04:32:28.517Z,974.35
2022-09-27T04:33:28.501Z,974.27
2022-09-27T04:34:28.532Z,974.34
2022-09-27T04:35:28.484Z,974.35
2022-09-27T04:36:28.489Z,974.32
2022-09-27T04:37:28.458Z,974.33
2022-09-27T04:38:28.441Z,974.34
2022-09-27T04:39:28.433Z,974.33
2022-09-27T04:40:28.505Z,974.35
2022-09-27T04:41:28.442Z,974.43
2022-09-27T04:42:28.853Z,974.39
2022-09-27T04:43:28.406Z,974.44
2022-09-27T04:44:28.371Z,974.43
2022-09-27T04:45:28.362Z,974.44
2022-09-27T04:46:28.359Z,974.47
2022-09-27T04:47:28.347Z,974.45
2022-09-27T04:48:28.349Z,974.52
2022-09-27T04:49:28.320Z,974.55
2022-09-27T04:50:29.154Z,974.55
2022-09-27T04:51:28.302Z,974.57
2022-09-27T04:52:28.306Z,974.60
2022-09-27T04:53:28.277Z,974.61
2022-09-27T04:54:28.288Z,974.63
2022-09-27T04:55:28.256Z,974.63
2022-09-27T04:56:28.240Z,974.62
2022-09-27T04:57:28.233Z,974.67
2022-09-27T04:58:28.225Z,974.69
2022-09-27T04:59:28.233Z,974.67
2022-09-27T05:00:28.206Z,974.75
2022-09-27T05:01:28.251Z,974.75
2022-09-27T05:02:28.211Z,974.70
2022-09-27T05:03:28.290Z,974.77
2022-09-27T05:04:28.154Z,974.73
2022-09-27T05:05:28.141Z,974.75
2022-09-27T05:06:28.338Z,974.84
2022-09-27T05:07:28.119Z,974.75
2022-09-27T05:08:28.109Z,974.81
2022-09-27T05:09:28.100Z,974.81
2022-09-27T05:10:28.106Z,974.81
2022-09-27T05:11:28.095Z,974.87
2022-09-27T05:12:28.063Z,974.85
2022-09-27T05:13:28.056Z,974.86
2022-09-27T05:14:28.042Z,974.86
2022-09-27T05:15:28.051Z,974.89
2022-09-27T05:16:30.793Z,974.92
2022-09-27T05:17:29.009Z,974.92
2022-09-27T05:18:28.000Z,974.95
2022-09-27T05:19:27.987Z,974.99
2022-09-27T05:20:27.993Z,974.98
2022-09-27T05:21:27.963Z,975.03
2022-09-27T05:22:27.972Z,975.03
2022-09-27T05:23:27.944Z,975.03
2022-09-27T05:24:27.952Z,975.00
2022-09-27T05:25:27.922Z,975.08
2022-09-27T05:26:27.906Z,975.07
2022-09-27T05:27:28.099Z,975.09
2022-09-27T05:28:27.886Z,975.08
2022-09-27T05:29:27.874Z,975.07
2022-09-27T05:30:27.976Z,975.06
2022-09-27T05:31:28.014Z,975.07
2022-09-27T05:32:27.840Z,975.10
2022-09-27T05:33:27.831Z,975.12
2022-09-27T05:34:27.819Z,975.15
2022-09-27T05:35:27.808Z,975.15
2022-09-27T05:36:27.817Z,975.16
2022-09-27T05:37:27.789Z,975.15
2022-09-27T05:38:27.810Z,975.17
2022-09-27T05:39:27.763Z,975.17
2022-09-27T05:40:42.055Z,975.24
2022-09-27T05:41:28.851Z,975.22
2022-09-27T05:42:27.727Z,975.27
2022-09-27T05:43:27.745Z,975.23
2022-09-27T05:44:27.726Z,975.27
2022-09-27T05:45:27.697Z,975.29
2022-09-27T05:46:27.797Z,975.28
2022-09-27T05:47:27.677Z,975.28
2022-09-27T05:48:27.684Z,975.29
2022-09-27T05:49:27.669Z,975.34
2022-09-27T05:50:27.640Z,975.29
2022-09-27T05:51:27.629Z,975.32
2022-09-27T05:52:27.618Z,975.33
2022-09-27T05:53:27.607Z,975.33
2022-09-27T05:54:27.636Z,975.35
2022-09-27T05:55:27.584Z,975.37
2022-09-27T05:56:27.572Z,975.41
2022-09-27T05:57:27.585Z,975.40
2022-09-27T05:58:27.570Z,975.41
2022-09-27T05:59:27.540Z,975.42
2022-09-27T06:00:27.528Z,975.40
2022-09-27T06:01:27.576Z,975.40
2022-09-27T06:02:27.556Z,975.45
2022-09-27T06:03:27.518Z,975.43
2022-09-27T06:04:27.485Z,975.42
2022-09-27T06:05:27.499Z,975.40
2022-09-27T06:06:27.461Z,975.43
2022-09-27T06:07:27.471Z,975.42
2022-09-27T06:08:27.439Z,975.52
2022-09-27T06:09:27.432Z,975.50
2022-09-27T06:10:27.534Z,975.51
2022-09-27T06:11:27.570Z,975.53
2022-09-27T06:12:27.395Z,975.52
2022-09-27T06:13:27.383Z,975.55
2022-09-27T06:14:27.372Z,975.53
2022-09-27T06:15:27.383Z,975.56
2022-09-27T06:16:27.426Z,975.53
2022-09-27T06:17:27.340Z,975.57
2022-09-27T06:18:27.348Z,975.55
2022-09-27T06:19:27.316Z,975.54
2022-09-27T06:20:27.357Z,975.57
2022-09-27T06:21:27.296Z,975.55
2022-09-27T06:22:27.306Z,975.59
2022-09-27T06:23:27.306Z,975.62
2022-09-27T06:24:27.262Z,975.64
2022-09-27T06:25:27.255Z,975.64
2022-09-27T06:26:27.276Z,975.67
2022-09-27T06:27:27.230Z,975.67
2022-09-27T06:28:27.216Z,975.65
2022-09-27T06:29:27.209Z,975.69
2022-09-27T06:30:27.309Z,975.69
2022-09-27T06:31:27.202Z,975.65
2022-09-27T06:32:27.188Z,975.71
2022-09-27T06:33:27.183Z,975.71
2022-09-27T06:34:27.149Z,975.75
2022-09-27T06:35:27.138Z,975.79
2022-09-27T06:36:27.145Z,975.81
2022-09-27T06:37:27.114Z,975.82
2022-09-27T06:38:27.102Z,975.81
2022-09-27T06:39:27.111Z,975.82
2022-09-27T06:40:27.411Z,975.87
2022-09-27T06:41:27.097Z,975.89
2022-09-27T06:42:27.111Z,975.85
2022-09-27T06:43:27.047Z,975.89
2022-09-27T06:44:27.035Z,975.92
2022-09-27T06:45:27.033Z,975.90
2022-09-27T06:46:27.088Z,975.97
2022-09-27T06:47:27.024Z,975.99
2022-09-27T06:48:26.989Z,976.00
2022-09-27T06:49:26.981Z,976.02
2022-09-27T06:50:27.036Z,976.04
2022-09-27T06:51:26.984Z,976.03
2022-09-27T06:52:26.945Z,976.05
2022-09-27T06:53:26.937Z,976.02
2022-09-27T06:54:26.923Z,976.06
2022-09-27T06:55:26.913Z,976.08
2022-09-27T06:56:27.003Z,976.04
2022-09-27T06:57:26.895Z,976.05
2022-09-27T06:58:26.894Z,976.08
2022-09-27T06:59:26.872Z,976.08
2022-09-27T07:00:27.114Z,976.13
2022-09-27T07:01:26.916Z,976.14
2022-09-27T07:02:26.857Z,976.17
2022-09-27T07:03:32.433Z,976.17
2022-09-27T07:04:27.810Z,976.20
2022-09-27T07:05:26.800Z,976.17
2022-09-27T07:06:26.811Z,976.21
2022-09-27T07:07:26.779Z,976.17
2022-09-27T07:08:26.765Z,976.23
2022-09-27T07:09:26.759Z,976.25
2022-09-27T07:10:26.832Z,976.28
2022-09-27T07:11:26.764Z,976.25
2022-09-27T07:12:26.720Z,976.24
2022-09-27T07:13:26.716Z,976.30
2022-09-27T07:14:26.716Z,976.33
2022-09-27T07:15:26.699Z,976.36
2022-09-27T07:16:26.773Z,976.29
2022-09-27T07:17:26.693Z,976.35
2022-09-27T07:18:26.661Z,976.30
2022-09-27T07:19:26.669Z,976.33
2022-09-27T07:20:26.654Z,976.37
2022-09-27T07:21:26.631Z,976.38
2022-09-27T07:22:26.631Z,976.39
2022-09-27T07:23:26.617Z,976.38
2022-09-27T07:24:26.592Z,976.44
2022-09-27T07:25:26.577Z,976.44
2022-09-27T07:26:26.563Z,976.43
2022-09-27T07:27:26.577Z,976.50
2022-09-27T07:28:26.558Z,976.54
2022-09-27T07:29:26.530Z,976.52
2022-09-27T07:30:26.670Z,976.60
2022-09-27T07:31:26.512Z,976.61
2022-09-27T07:32:26.518Z,976.61
2022-09-27T07:33:26.511Z,976.62
2022-09-27T07:34:26.477Z,976.61
2022-09-27T07:35:26.487Z,976.65
2022-09-27T07:36:26.457Z,976.69
2022-09-27T07:37:26.453Z,976.67
2022-09-27T07:38:26.450Z,976.68
2022-09-27T07:39:26.420Z,976.68
2022-09-27T07:40:26.643Z,976.72
2022-09-27T07:41:26.397Z,976.71
2022-09-27T07:42:26.411Z,976.70
2022-09-27T07:43:26.375Z,976.75
2022-09-27T07:44:26.366Z,976.77
2022-09-27T07:45:26.354Z,976.76
2022-09-27T07:46:26.361Z,976.77
2022-09-27T07:47:26.330Z,976.76
2022-09-27T07:48:26.343Z,976.82
2022-09-27T07:49:26.307Z,976.84
2022-09-27T07:50:26.450Z,976.85
2022-09-27T07:51:26.287Z,976.89
2022-09-27T07:52:26.273Z,976.85
2022-09-27T07:53:26.286Z,976.89
2022-09-27T07:54:26.252Z,976.90
2022-09-27T07:55:26.263Z,976.87
2022-09-27T07:56:26.228Z,976.88
2022-09-27T07:57:26.221Z,976.92
2022-09-27T07:58:26.211Z,976.93
2022-09-27T07:59:26.256Z,976.93
2022-09-27T08:00:26.199Z,976.93
2022-09-27T08:01:26.231Z,976.94
2022-09-27T08:02:26.217Z,976.94
2022-09-27T08:03:26.151Z,976.95
2022-09-27T08:04:26.139Z,976.95
2022-09-27T08:05:26.159Z,976.97
2022-09-27T08:06:26.124Z,976.97
2022-09-27T08:07:26.111Z,976.98
2022-09-27T08:08:26.113Z,977.02
2022-09-27T08:09:26.091Z,977.00
2022-09-27T08:10:26.074Z,977.05
2022-09-27T08:11:26.096Z,977.07
2022-09-27T08:12:26.052Z,977.15
2022-09-27T08:13:26.079Z,977.07
2022-09-27T08:14:26.044Z,977.06
2022-09-27T08:15:26.024Z,977.10
2022-09-27T08:16:26.084Z,977.12
2022-09-27T08:17:25.995Z,977.08
2022-09-27T08:18:26.027Z,977.14
2022-09-27T08:19:25.982Z,977.11
2022-09-27T08:20:25.962Z,977.19
2022-09-27T08:21:25.957Z,977.11
2022-09-27T08:22:25.977Z,977.13
2022-09-27T08:23:27.033Z,977.19
2022-09-27T08:24:25.935Z,977.18
2022-09-27T08:25:25.905Z,977.17
2022-09-27T08:26:25.899Z,977.19
2022-09-27T08:27:25.919Z,977.22
2022-09-27T08:28:26.014Z,977.22
2022-09-27T08:29:25.878Z,977.20
2022-09-27T08:30:25.854Z,977.28
2022-09-27T08:31:26.001Z,977.26
2022-09-27T08:32:25.846Z,977.29
2022-09-27T08:33:29.856Z,977.34
2022-09-27T08:34:27.109Z,977.34
2022-09-27T08:35:25.834Z,977.36
2022-09-27T08:36:25.814Z,977.43
2022-09-27T08:37:25.783Z,977.43
2022-09-27T08:38:25.763Z,977.37
2022-09-27T08:39:25.767Z,977.47
2022-09-27T08:40:25.813Z,977.49
2022-09-27T08:41:25.823Z,977.50
2022-09-27T08:42:25.727Z,977.48
2022-09-27T08:43:25.749Z,977.54
2022-09-27T08:44:25.702Z,977.56
2022-09-27T08:45:25.742Z,977.60
2022-09-27T08:46:25.683Z,977.53
2022-09-27T08:47:28.385Z,977.59
2022-09-27T08:48:25.686Z,977.60
2022-09-27T08:49:25.646Z,977.54
2022-09-27T08:50:25.657Z,977.58
2022-09-27T08:51:25.628Z,977.54
2022-09-27T08:52:25.623Z,977.58
2022-09-27T08:53:25.608Z,977.59
2022-09-27T08:54:25.622Z,977.58
2022-09-27T08:55:25.590Z,977.59
2022-09-27T08:56:25.585Z,977.60
2022-09-27T08:57:25.556Z,977.69
2022-09-27T08:58:25.585Z,977.65
2022-09-27T08:59:25.538Z,977.65
2022-09-27T09:00:25.516Z,977.58
2022-09-27T09:01:28.913Z,977.68
2022-09-27T09:02:25.598Z,977.62
2022-09-27T09:03:25.488Z,977.65
2022-09-27T09:04:25.496Z,977.66
2022-09-27T09:05:25.462Z,977.63
2022-09-27T09:06:25.493Z,977.66
2022-09-27T09:07:25.438Z,977.65
2022-09-27T09:08:25.437Z,977.68
2022-09-27T09:09:25.437Z,977.72
2022-09-27T09:10:25.476Z,977.71
2022-09-27T09:11:25.392Z,977.75
2022-09-27T09:12:25.385Z,977.74
2022-09-27T09:13:25.851Z,977.72
2022-09-27T09:14:25.381Z,977.71
2022-09-27T09:15:25.354Z,977.73
2022-09-27T09:16:25.378Z,977.73
2022-09-27T09:17:25.349Z,977.75
2022-09-27T09:18:25.320Z,977.81
2022-09-27T09:19:25.308Z,977.85
2022-09-27T09:20:25.320Z,977.84
2022-09-27T09:21:25.298Z,977.84
2022-09-27T09:22:25.292Z,977.87
2022-09-27T09:23:25.261Z,977.87
2022-09-27T09:24:25.333Z,977.83
2022-09-27T09:25:25.279Z,977.89
2022-09-27T09:26:25.227Z,977.81
2022-09-27T09:27:25.214Z,977.85
2022-09-27T09:28:25.231Z,977.87
2022-09-27T09:29:25.197Z,977.82
2022-09-27T09:30:25.209Z,977.82
2022-09-27T09:31:25.338Z,977.85
2022-09-27T09:32:25.165Z,977.85
2022-09-27T09:33:25.153Z,977.82
2022-09-27T09:34:25.166Z,977.79
2022-09-27T09:35:25.130Z,977.78
2022-09-27T09:36:25.117Z,977.79
2022-09-27T09:37:25.107Z,977.77
2022-09-27T09:38:25.116Z,977.77
2022-09-27T09:39:25.117Z,977.73
2022-09-27T09:40:25.264Z,977.77
2022-09-27T09:41:25.060Z,977.77
2022-09-27T09:42:25.053Z,977.74
2022-09-27T09:43:25.037Z,977.77
2022-09-27T09:44:25.056Z,977.75
2022-09-27T09:45:25.107Z,977.73
2022-09-27T09:46:25.013Z,977.72
2022-09-27T09:47:24.993Z,977.69
2022-09-27T09:48:24.984Z,977.78
2022-09-27T09:49:24.972Z,977.75
2022-09-27T09:50:24.997Z,977.77
2022-09-27T09:51:24.948Z,977.81
2022-09-27T09:52:24.982Z,977.81
2022-09-27T09:53:24.925Z,977.80
2022-09-27T09:54:24.940Z,977.84
2022-09-27T09:55:24.905Z,977.85
2022-09-27T09:56:24.918Z,977.82
2022-09-27T09:57:24.897Z,977.87
2022-09-27T09:58:24.880Z,977.92
2022-09-27T09:59:24.867Z,977.91
2022-09-27T10:00:24.880Z,977.90
2022-09-27T10:01:24.921Z,977.95
2022-09-27T10:02:24.946Z,977.86
2022-09-27T10:03:24.833Z,977.93
2022-09-27T10:04:24.811Z,977.91
2022-09-27T10:05:24.796Z,977.97
2022-09-27T10:06:24.805Z,977.90
2022-09-27T10:07:24.775Z,977.87
2022-09-27T10:08:24.765Z,977.89
2022-09-27T10:09:24.749Z,977.89
2022-09-27T10:10:24.759Z,977.88
2022-09-27T10:11:24.749Z,977.86
2022-09-27T10:12:24.745Z,977.89
2022-09-27T10:13:24.713Z,977.92
2022-09-27T10:14:24.699Z,977.88
2022-09-27T10:15:24.683Z,977.92
2022-09-27T10:16:24.711Z,977.92
2022-09-27T10:17:24.682Z,977.91
2022-09-27T10:18:24.649Z,977.96
2022-09-27T10:19:24.639Z,977.97
2022-09-27T10:20:24.632Z,977.91
2022-09-27T10:21:24.644Z,977.93
2022-09-27T10:22:24.610Z,977.87
2022-09-27T10:23:24.593Z,977.82
2022-09-27T10:24:25.050Z,977.80
2022-09-27T10:25:24.577Z,977.86
2022-09-27T10:26:24.583Z,977.86
2022-09-27T10:27:24.568Z,977.84
2022-09-27T10:28:24.540Z,977.84
2022-09-27T10:29:24.525Z,977.82
2022-09-27T10:30:24.545Z,977.84
2022-09-27T10:31:24.559Z,977.80
2022-09-27T10:32:24.496Z,977.70
2022-09-27T10:33:24.492Z,977.77
2022-09-27T10:34:24.472Z,977.75
2022-09-27T10:35:24.461Z,977.79
2022-09-27T10:36:24.537Z,977.70
2022-09-27T10:37:24.460Z,977.68
2022-09-27T10:38:24.431Z,977.73
2022-09-27T10:39:24.415Z,977.74
2022-09-27T10:40:24.460Z,977.74
2022-09-27T10:41:24.395Z,977.70
2022-09-27T10:42:24.585Z,977.75
2022-09-27T10:43:28.847Z,977.69
2022-09-27T10:44:25.570Z,977.76
2022-09-27T10:45:24.427Z,977.79
2022-09-27T10:46:24.338Z,977.84
2022-09-27T10:47:24.326Z,977.72
2022-09-27T10:48:24.316Z,977.69
2022-09-27T10:49:24.356Z,977.69
2022-09-27T10:50:45.738Z,977.70
2022-09-27T10:51:25.305Z,977.78
2022-09-27T10:52:24.273Z,977.70
2022-09-27T10:53:24.258Z,977.70
2022-09-27T10:54:24.249Z,977.78
2022-09-27T10:55:24.239Z,977.74
2022-09-27T10:56:24.252Z,977.72
2022-09-27T10:57:24.235Z,977.79
2022-09-27T10:58:24.230Z,977.78
2022-09-27T10:59:24.195Z,977.84
2022-09-27T11:00:24.183Z,977.83
2022-09-27T11:01:24.199Z,977.85
2022-09-27T11:02:24.184Z,977.88
2022-09-27T11:03:24.172Z,977.86
2022-09-27T11:04:24.189Z,977.86
2022-09-27T11:05:24.127Z,977.87
2022-09-27T11:06:24.114Z,977.88
2022-09-27T11:07:24.129Z,977.91
2022-09-27T11:08:24.107Z,977.91
2022-09-27T11:09:24.079Z,977.90
2022-09-27T11:10:24.082Z,977.90
2022-09-27T11:11:24.058Z,977.92
2022-09-27T11:12:24.073Z,977.91
2022-09-27T11:13:24.034Z,977.92
2022-09-27T11:14:24.046Z,977.92
2022-09-27T11:15:24.014Z,977.91
2022-09-27T11:16:24.039Z,977.97
2022-09-27T11:17:23.990Z,977.91
2022-09-27T11:18:24.005Z,977.88
2022-09-27T11:19:24.024Z,977.90
2022-09-27T11:20:23.959Z,977.95
2022-09-27T11:21:23.967Z,977.92
2022-09-27T11:22:23.938Z,977.99
2022-09-27T11:23:23.923Z,978.00
2022-09-27T11:24:23.917Z,978.01
2022-09-27T11:25:27.265Z,977.99
2022-09-27T11:26:24.893Z,978.00
2022-09-27T11:27:23.902Z,978.01
2022-09-27T11:28:23.868Z,978.07
2022-09-27T11:29:23.858Z,978.00
2022-09-27T11:30:23.866Z,978.02
2022-09-27T11:31:23.884Z,978.01
2022-09-27T11:32:23.878Z,977.99
2022-09-27T11:33:23.929Z,977.94
2022-09-27T11:34:23.979Z,978.02
2022-09-27T11:35:23.790Z,978.03
2022-09-27T11:36:23.782Z,978.08
2022-09-27T11:37:23.841Z,978.08
2022-09-27T11:38:47.994Z,978.06
2022-09-27T11:39:24.745Z,978.06
2022-09-27T11:40:23.866Z,978.08
2022-09-27T11:41:23.749Z,978.07
2022-09-27T11:42:23.767Z,978.08
2022-09-27T11:43:23.767Z,978.08
2022-09-27T11:44:23.776Z,978.01
2022-09-27T11:45:45.338Z,978.05
2022-09-27T11:46:31.101Z,978.00
2022-09-27T11:47:25.080Z,978.06
2022-09-27T11:48:23.782Z,977.96
2022-09-27T11:49:23.767Z,978.05
2022-09-27T11:50:23.717Z,977.97
2022-09-27T11:51:23.874Z,977.99
2022-09-27T11:52:24.398Z,978.04
2022-09-27T11:53:23.655Z,978.04
2022-09-27T11:54:23.726Z,978.09
2022-09-27T11:55:23.718Z,978.01
2022-09-27T11:56:23.825Z,978.02
2022-09-27T11:57:23.598Z,978.00
2022-09-27T11:58:23.538Z,978.02
2022-09-27T11:59:24.909Z,978.02
2022-09-27T12:00:23.739Z,977.99
2022-09-27T12:01:23.499Z,978.01
2022-09-27T12:02:23.589Z,978.01
2022-09-27T12:03:23.536Z,977.96
2022-09-27T12:04:23.469Z,978.06
2022-09-27T12:05:23.520Z,978.10
2022-09-27T12:06:23.469Z,978.12
2022-09-27T12:07:23.481Z,978.12
2022-09-27T12:08:23.423Z,978.07
2022-09-27T12:09:23.410Z,978.12
2022-09-27T12:10:23.421Z,978.02
2022-09-27T12:11:23.390Z,978.13
2022-09-27T12:12:23.402Z,978.10
2022-09-27T12:13:23.369Z,978.09
2022-09-27T12:14:26.792Z,978.04
2022-09-27T12:15:23.347Z,978.09
2022-09-27T12:16:23.385Z,977.99
2022-09-27T12:17:23.344Z,978.05
2022-09-27T12:18:23.349Z,978.04
2022-09-27T12:19:23.309Z,978.04
2022-09-27T12:20:23.311Z,978.09
2022-09-27T12:21:23.275Z,978.04
2022-09-27T12:22:46.681Z,978.03
2022-09-27T12:23:24.255Z,978.09
2022-09-27T12:24:23.246Z,978.11
2022-09-27T12:25:23.256Z,978.09
2022-09-27T12:26:23.221Z,978.13
2022-09-27T12:27:23.231Z,978.09
2022-09-27T12:28:27.987Z,978.06